createdAt,value
2023-09-06T00:01:53.982Z,101924.00
2023-09-06T00:04:20.705Z,101922.41
2023-09-06T00:06:47.328Z,101927.66
2023-09-06T00:09:13.942Z,101924.22
2023-09-06T00:11:41.016Z,101919.28
2023-09-06T00:14:07.767Z,101926.47
2023-09-06T00:16:34.342Z,101919.59
2023-09-06T00:19:01.487Z,101917.38
2023-09-06T00:21:28.650Z,101919.47
2023-09-06T00:23:55.512Z,101925.31
2023-09-06T00:26:22.308Z,101909.34
2023-09-06T00:28:49.168Z,101910.28
2023-09-06T00:31:15.753Z,101907.91
2023-09-06T00:33:43.534Z,101904.00
2023-09-06T00:36:10.952Z,101908.19
2023-09-06T00:38:38.083Z,101907.28
2023-09-06T00:41:04.700Z,101904.75
2023-09-06T00:43:31.314Z,101908.78
2023-09-06T00:45:58.179Z,101909.53
2023-09-06T00:48:27.317Z,101910.00
2023-09-06T00:50:56.252Z,101905.50
2023-09-06T00:53:24.776Z,101906.88
2023-09-06T00:55:51.429Z,101903.31
2023-09-06T00:58:19.983Z,101907.94
2023-09-06T01:00:48.396Z,101909.91
2023-09-06T01:03:16.394Z,101906.16
2023-09-06T01:05:51.175Z,101904.38
2023-09-06T01:08:28.128Z,101912.13
2023-09-06T01:10:55.211Z,101912.28
2023-09-06T01:13:21.962Z,101912.44
2023-09-06T01:15:52.049Z,101910.66
2023-09-06T01:18:19.009Z,101917.22
2023-09-06T01:20:54.091Z,101912.31
2023-09-06T01:23:37.109Z,101905.28
2023-09-06T01:26:04.401Z,101909.78
2023-09-06T01:28:32.706Z,101912.44
2023-09-06T01:31:02.754Z,101912.44
2023-09-06T01:33:30.398Z,101914.09
2023-09-06T01:35:58.321Z,101913.06
2023-09-06T01:38:25.156Z,101916.66
2023-09-06T01:40:52.842Z,101912.19
2023-09-06T01:43:19.683Z,101908.00
2023-09-06T01:45:53.579Z,101902.63
2023-09-06T01:48:22.705Z,101913.53
2023-09-06T01:50:49.934Z,101905.91
2023-09-06T01:53:16.605Z,101904.41
2023-09-06T01:55:44.341Z,101900.69
2023-09-06T01:58:12.379Z,101910.81
2023-09-06T02:00:39.823Z,101915.16
2023-09-06T02:03:08.201Z,101908.44
2023-09-06T02:05:35.298Z,101910.81
2023-09-06T02:08:02.652Z,101905.59
2023-09-06T02:10:29.257Z,101913.78
2023-09-06T02:12:55.872Z,101911.84
2023-09-06T02:15:24.269Z,101906.47
2023-09-06T02:17:51.087Z,101910.34
2023-09-06T02:20:21.675Z,101920.78
2023-09-06T02:22:53.614Z,101914.41
2023-09-06T02:25:26.509Z,101921.72
2023-09-06T02:27:54.012Z,101927.53
2023-09-06T02:30:21.292Z,101926.44
2023-09-06T02:32:51.359Z,101933.75
2023-09-06T02:35:17.912Z,101933.16
2023-09-06T02:37:44.814Z,101934.34
2023-09-06T02:40:18.412Z,101928.81
2023-09-06T02:42:45.495Z,101937.72
2023-09-06T02:45:13.189Z,101936.25
2023-09-06T02:47:49.206Z,101950.84
2023-09-06T02:50:24.510Z,101941.44
2023-09-06T02:52:54.752Z,101945.31
2023-09-06T02:55:22.428Z,101951.88
2023-09-06T02:57:50.555Z,101943.22
2023-09-06T03:00:27.102Z,101935.59
2023-09-06T03:03:08.497Z,101941.53
2023-09-06T03:05:42.638Z,101947.38
2023-09-06T03:08:13.376Z,101941.25
2023-09-06T03:10:42.080Z,101942.91
2023-09-06T03:13:12.279Z,101946.00
2023-09-06T03:15:44.718Z,101940.78
2023-09-06T03:18:12.106Z,101939.72
2023-09-06T03:20:45.306Z,101947.47
2023-09-06T03:23:22.588Z,101945.53
2023-09-06T03:25:56.877Z,101951.34
2023-09-06T03:28:29.033Z,101946.41
2023-09-06T03:30:59.962Z,101948.03
2023-09-06T03:33:28.315Z,101949.66
2023-09-06T03:35:55.600Z,101947.13
2023-09-06T03:38:26.421Z,101952.91
2023-09-06T03:40:53.435Z,101951.44
2023-09-06T03:43:32.156Z,101959.03
2023-09-06T03:46:00.714Z,101956.91
2023-09-06T03:48:29.605Z,101952.31
2023-09-06T03:50:58.204Z,101955.56
2023-09-06T03:53:26.869Z,101956.00
2023-09-06T03:55:59.229Z,101954.06
2023-09-06T03:58:35.554Z,101958.78
2023-09-06T04:01:05.224Z,101956.28
2023-09-06T04:03:35.546Z,101955.97
2023-09-06T04:06:04.765Z,101956.28
2023-09-06T04:08:33.450Z,101953.59
2023-09-06T04:11:01.352Z,101955.97
2023-09-06T04:13:29.707Z,101964.88
2023-09-06T04:15:57.240Z,101956.53
2023-09-06T04:18:25.760Z,101956.53
2023-09-06T04:20:52.993Z,101960.38
2023-09-06T04:23:21.101Z,101961.25
2023-09-06T04:25:52.787Z,101961.69
2023-09-06T04:28:26.555Z,101958.72
2023-09-06T04:30:55.579Z,101974.03
2023-09-06T04:33:25.535Z,101963.31
2023-09-06T04:35:58.549Z,101965.81
2023-09-06T04:38:25.717Z,101968.94
2023-09-06T04:40:59.950Z,101967.44
2023-09-06T04:43:30.243Z,101972.03
2023-09-06T04:45:59.168Z,101975.91
2023-09-06T04:48:26.318Z,101972.59
2023-09-06T04:50:57.711Z,101974.53
2023-09-06T04:53:25.013Z,101974.84
2023-09-06T04:55:53.879Z,101976.03
2023-09-06T04:58:25.047Z,101985.56
2023-09-06T05:00:51.691Z,101974.84
2023-09-06T05:03:19.158Z,101981.69
2023-09-06T05:05:50.421Z,101979.03
2023-09-06T05:08:17.919Z,101976.03
2023-09-06T05:10:44.723Z,101977.22
2023-09-06T05:13:12.979Z,101987.94
2023-09-06T05:15:42.493Z,101984.81
2023-09-06T05:18:11.757Z,101987.06
2023-09-06T05:20:40.772Z,101990.16
2023-09-06T05:23:13.528Z,101988.25
2023-09-06T05:25:42.138Z,101997.47
2023-09-06T05:28:13.784Z,101996.59
2023-09-06T05:30:45.837Z,102004.94
2023-09-06T05:33:16.098Z,101998.41
2023-09-06T05:35:44.709Z,102004.81
2023-09-06T05:38:13.302Z,102007.69
2023-09-06T05:40:42.886Z,102012.63
2023-09-06T05:43:14.283Z,102002.97
2023-09-06T05:45:41.662Z,102011.63
2023-09-06T05:48:12.151Z,102002.72
2023-09-06T05:50:39.400Z,102014.06
2023-09-06T05:53:06.125Z,102009.91
2023-09-06T05:55:33.542Z,102010.41
2023-09-06T05:58:00.444Z,102014.38
2023-09-06T06:00:29.543Z,102016.91
2023-09-06T06:02:59.489Z,102011.69
2023-09-06T06:05:27.799Z,102026.41
2023-09-06T06:07:54.492Z,102022.25
2023-09-06T06:10:21.045Z,102031.75
2023-09-06T06:12:47.622Z,102028.59
2023-09-06T06:15:14.697Z,102029.97
2023-09-06T06:17:42.439Z,102026.47
2023-09-06T06:20:12.139Z,102041.31
2023-09-06T06:22:39.081Z,102032.66
2023-09-06T06:25:08.255Z,102037.72
2023-09-06T06:27:35.544Z,102040.81
2023-09-06T06:30:02.415Z,102041.16
2023-09-06T06:32:29.071Z,102045.69
2023-09-06T06:34:57.602Z,102043.47
2023-09-06T06:37:24.161Z,102040.22
2023-09-06T06:39:50.658Z,102043.78
2023-09-06T06:42:17.143Z,102045.53
2023-09-06T06:44:52.650Z,102038.44
2023-09-06T06:47:19.536Z,102044.84
2023-09-06T06:49:47.291Z,102049.16
2023-09-06T06:52:13.780Z,102042.47
2023-09-06T06:54:41.790Z,102054.00
2023-09-06T06:57:08.865Z,102049.25
2023-09-06T06:59:35.882Z,102051.69
2023-09-06T07:02:02.564Z,102054.16
2023-09-06T07:04:29.182Z,102054.16
2023-09-06T07:06:55.802Z,102056.72
2023-09-06T07:09:22.294Z,102058.03
2023-09-06T07:11:50.790Z,102054.56
2023-09-06T07:14:17.351Z,102057.34
2023-09-06T07:16:44.119Z,102059.13
2023-09-06T07:19:10.856Z,102056.47
2023-09-06T07:21:37.395Z,102055.72
2023-09-06T07:24:05.032Z,102052.78
2023-09-06T07:26:31.698Z,102057.28
2023-09-06T07:28:58.681Z,102061.25
2023-09-06T07:31:25.396Z,102063.56
2023-09-06T07:33:52.241Z,102072.72
2023-09-06T07:36:20.049Z,102068.09
2023-09-06T07:38:47.088Z,102071.34
2023-09-06T07:41:13.826Z,102073.63
2023-09-06T07:43:40.638Z,102073.44
2023-09-06T07:46:10.958Z,102074.97
2023-09-06T07:48:40.047Z,102072.53
2023-09-06T07:51:07.315Z,102073.28
2023-09-06T07:53:34.232Z,102075.03
2023-09-06T07:56:01.071Z,102068.16
2023-09-06T07:58:30.398Z,102073.81
2023-09-06T08:01:14.878Z,102071.63
2023-09-06T08:03:46.001Z,102069.66
2023-09-06T08:06:12.991Z,102078.28
2023-09-06T08:08:39.647Z,102076.28
2023-09-06T08:11:07.108Z,102080.97
2023-09-06T08:13:34.126Z,102084.16
2023-09-06T08:16:01.423Z,102083.69
2023-09-06T08:18:30.023Z,102085.34
2023-09-06T08:20:57.154Z,102082.63
2023-09-06T08:23:23.823Z,102081.13
2023-09-06T08:25:50.329Z,102083.75
2023-09-06T08:28:19.562Z,102093.09
2023-09-06T08:30:48.623Z,102092.56
2023-09-06T08:33:15.920Z,102095.72
2023-09-06T08:35:43.181Z,102095.66
2023-09-06T08:38:13.492Z,102103.69
2023-09-06T08:40:40.949Z,102107.09
2023-09-06T08:43:11.115Z,102102.03
2023-09-06T08:45:38.673Z,102101.50
2023-09-06T08:48:05.776Z,102094.97
2023-09-06T08:50:34.691Z,102098.63
2023-09-06T08:53:02.907Z,102095.53
2023-09-06T08:55:29.722Z,102104.56
2023-09-06T08:57:58.403Z,102097.81
2023-09-06T09:00:25.300Z,102101.59
2023-09-06T09:02:53.159Z,102102.31
2023-09-06T09:05:21.869Z,102100.72
2023-09-06T09:07:50.957Z,102101.69
2023-09-06T09:10:18.129Z,102101.09
2023-09-06T09:12:44.943Z,102106.63
2023-09-06T09:17:57.069Z,102088.28
2023-09-06T09:20:27.923Z,102096.81
2023-09-06T09:23:02.278Z,102090.06
2023-09-06T09:25:28.974Z,102099.97
2023-09-06T09:27:57.931Z,102096.78
2023-09-06T09:30:25.711Z,102101.13
2023-09-06T09:33:01.059Z,102096.63
2023-09-06T09:35:28.340Z,102098.03
2023-09-06T09:37:55.135Z,102101.72
2023-09-06T09:40:49.951Z,102097.47
2023-09-06T09:43:18.720Z,102100.41
2023-09-06T09:45:46.940Z,102099.97
2023-09-06T09:48:18.262Z,102096.72
2023-09-06T09:50:47.625Z,102104.94
2023-09-06T09:53:22.293Z,102105.03
2023-09-06T09:55:51.208Z,102099.66
2023-09-06T09:58:20.399Z,102098.19
2023-09-06T10:00:51.444Z,102100.59
2023-09-06T10:03:19.926Z,102088.13
2023-09-06T10:05:48.482Z,102092.09
2023-09-06T10:08:18.999Z,102083.16
2023-09-06T10:10:45.935Z,102084.75
2023-09-06T10:13:15.683Z,102088.50
2023-09-06T10:15:44.593Z,102093.00
2023-09-06T10:18:12.725Z,102090.59
2023-09-06T10:20:40.811Z,102088.66
2023-09-06T10:23:08.410Z,102090.19
2023-09-06T10:25:41.019Z,102078.22
2023-09-06T10:28:08.494Z,102079.16
2023-09-06T10:30:43.637Z,102077.28
2023-09-06T10:33:29.111Z,102068.53
2023-09-06T10:35:59.109Z,102076.22
2023-09-06T10:38:27.940Z,102081.50
2023-09-06T10:40:57.450Z,102073.06
2023-09-06T10:43:29.747Z,102073.69
2023-09-06T10:45:57.691Z,102077.16
2023-09-06T10:48:24.907Z,102076.22
2023-09-06T10:51:20.920Z,102070.28
2023-09-06T10:53:49.199Z,102071.19
2023-09-06T10:56:28.886Z,102066.72
2023-09-06T10:58:58.502Z,102067.78
2023-09-06T11:01:25.941Z,102073.66
2023-09-06T11:03:52.913Z,102070.00
2023-09-06T11:06:22.696Z,102066.19
2023-09-06T11:08:50.563Z,102066.06
2023-09-06T11:11:17.214Z,102065.91
2023-09-06T11:13:46.073Z,102067.16
2023-09-06T11:16:15.155Z,102066.06
2023-09-06T11:18:47.073Z,102063.88
2023-09-06T11:21:20.364Z,102066.13
2023-09-06T11:23:49.095Z,102061.78
2023-09-06T11:26:16.344Z,102063.25
2023-09-06T11:28:44.560Z,102060.69
2023-09-06T11:31:23.364Z,102058.69
2023-09-06T11:33:57.223Z,102058.16
2023-09-06T11:36:33.190Z,102058.69
2023-09-06T11:39:13.365Z,102056.09
2023-09-06T11:41:41.377Z,102056.63
2023-09-06T11:44:11.172Z,102048.22
2023-09-06T11:46:39.809Z,102046.34
2023-09-06T11:49:07.897Z,102054.38
2023-09-06T11:51:34.830Z,102046.69
2023-09-06T11:54:10.521Z,102045.75
2023-09-06T11:56:41.088Z,102041.88
2023-09-06T11:59:13.866Z,102052.44
2023-09-06T12:01:41.540Z,102050.03
2023-09-06T12:04:14.486Z,102038.66
2023-09-06T12:06:43.210Z,102036.47
2023-09-06T12:09:13.469Z,102033.41
2023-09-06T12:11:40.707Z,102039.81
2023-09-06T12:14:10.128Z,102044.09
2023-09-06T12:16:38.060Z,102032.72
2023-09-06T12:19:04.811Z,102038.41
2023-09-06T12:21:31.551Z,102038.72
2023-09-06T12:23:59.423Z,102031.38
2023-09-06T12:26:26.177Z,102033.41
2023-09-06T12:28:52.911Z,102035.19
2023-09-06T12:31:19.710Z,102028.25
2023-09-06T12:33:49.135Z,102032.84
2023-09-06T12:36:18.787Z,102030.13
2023-09-06T12:38:45.846Z,102024.97
2023-09-06T12:41:13.519Z,102016.22
2023-09-06T12:43:40.163Z,102012.56
2023-09-06T12:46:10.083Z,102014.75
2023-09-06T12:48:37.194Z,102014.22
2023-09-06T12:51:06.202Z,102001.66
2023-09-06T12:53:33.491Z,102005.28
2023-09-06T12:56:00.324Z,102000.53
2023-09-06T12:58:28.126Z,102001.59
2023-09-06T13:00:55.839Z,101997.06
2023-09-06T13:03:22.672Z,101991.72
2023-09-06T13:05:50.257Z,101995.91
2023-09-06T13:08:18.581Z,101991.50
2023-09-06T13:10:47.037Z,101991.72
2023-09-06T13:13:13.664Z,101992.44
2023-09-06T13:15:40.213Z,101993.19
2023-09-06T13:18:07.833Z,102006.66
2023-09-06T13:20:34.688Z,101997.66
2023-09-06T13:23:01.255Z,102000.94
2023-09-06T13:25:27.802Z,101998.94
2023-09-06T13:27:54.517Z,101998.94
2023-09-06T13:30:21.210Z,102005.53
2023-09-06T13:32:47.847Z,101998.59
2023-09-06T13:35:14.551Z,101996.78
2023-09-06T13:37:41.379Z,102000.78
2023-09-06T13:40:09.387Z,102003.72
2023-09-06T13:42:36.168Z,102002.47
2023-09-06T13:45:02.994Z,102001.94
2023-09-06T13:47:29.608Z,102003.19
2023-09-06T13:49:56.223Z,102004.06
2023-09-06T13:52:22.731Z,101999.13
2023-09-06T13:54:49.310Z,101998.78
2023-09-06T13:57:15.935Z,101996.06
2023-09-06T13:59:42.824Z,101995.13
2023-09-06T14:02:09.875Z,101997.13
2023-09-06T14:04:36.975Z,101990.91
2023-09-06T14:07:04.124Z,101993.84
2023-09-06T14:09:30.721Z,101992.38
2023-09-06T14:11:57.412Z,101985.97
2023-09-06T14:14:24.709Z,101991.81
2023-09-06T14:16:52.022Z,101988.34
2023-09-06T14:19:18.585Z,101986.88
2023-09-06T14:21:47.337Z,101990.34
2023-09-06T14:24:16.214Z,101988.34
2023-09-06T14:26:46.216Z,101984.47
2023-09-06T14:29:15.982Z,101977.31
2023-09-06T14:31:42.605Z,101983.13
2023-09-06T14:34:09.308Z,101977.84
2023-09-06T14:36:36.313Z,101980.59
2023-09-06T14:39:05.782Z,101989.34
2023-09-06T14:41:33.875Z,101982.72
2023-09-06T14:44:00.532Z,101981.97
2023-09-06T14:46:27.203Z,101979.97
2023-09-06T14:48:53.844Z,101976.47
2023-09-06T14:51:20.626Z,101969.88
2023-09-06T14:53:47.322Z,101970.81
2023-09-06T14:56:16.132Z,101962.59
2023-09-06T14:58:43.374Z,101972.81
2023-09-06T15:01:10.118Z,101967.88
2023-09-06T15:03:37.012Z,101967.13
2023-09-06T15:06:07.455Z,101970.06
2023-09-06T15:08:34.363Z,101970.94
2023-09-06T15:11:01.122Z,101961.25
2023-09-06T15:13:29.154Z,101968.00
2023-09-06T15:15:56.254Z,101963.59
2023-09-06T15:18:22.912Z,101964.66
2023-09-06T15:20:49.680Z,101969.19
2023-09-06T15:23:16.482Z,101965.72
2023-09-06T15:25:45.124Z,101969.00
2023-09-06T15:28:11.976Z,101967.88
2023-09-06T15:30:38.701Z,101967.13
2023-09-06T15:33:05.539Z,101971.16
2023-09-06T15:35:32.305Z,101968.72
2023-09-06T15:38:01.002Z,101960.66
2023-09-06T15:40:27.681Z,101959.31
2023-09-06T15:42:54.372Z,101956.38
2023-09-06T15:45:21.045Z,101952.69
2023-09-06T15:47:49.225Z,101956.69
2023-09-06T15:50:19.064Z,101952.28
2023-09-06T15:52:47.772Z,101953.34
2023-09-06T15:55:14.830Z,101954.41
2023-09-06T15:57:42.707Z,101952.94
2023-09-06T16:00:24.467Z,101955.88
2023-09-06T16:02:57.465Z,101944.41
2023-09-06T16:05:24.357Z,101949.88
2023-09-06T16:07:50.956Z,101940.72
2023-09-06T16:10:17.766Z,101951.25
2023-09-06T16:12:47.426Z,101952.09
2023-09-06T16:15:16.897Z,101952.44
2023-09-06T16:17:45.988Z,101950.63
2023-09-06T16:20:13.458Z,101953.38
2023-09-06T16:22:40.086Z,101953.91
2023-09-06T16:25:08.935Z,101955.38
2023-09-06T16:27:36.025Z,101957.69
2023-09-06T16:30:06.816Z,101948.75
2023-09-06T16:32:33.872Z,101948.53
2023-09-06T16:35:00.908Z,101948.53
2023-09-06T16:37:27.631Z,101949.81
2023-09-06T16:39:54.292Z,101943.06
2023-09-06T16:42:22.383Z,101944.03
2023-09-06T16:44:49.047Z,101942.88
2023-09-06T16:47:15.676Z,101948.88
2023-09-06T16:49:43.683Z,101961.59
2023-09-06T16:52:10.434Z,101954.44
2023-09-06T16:54:37.557Z,101950.97
2023-09-06T16:57:05.257Z,101950.34
2023-09-06T16:59:32.561Z,101954.66
2023-09-06T17:01:59.299Z,101951.31
2023-09-06T17:04:26.357Z,101951.66
2023-09-06T17:06:52.989Z,101950.81
2023-09-06T17:09:19.639Z,101951.13
2023-09-06T17:11:46.234Z,101945.47
2023-09-06T17:14:13.118Z,101947.09
2023-09-06T17:16:40.067Z,101947.75
2023-09-06T17:19:10.402Z,101951.13
2023-09-06T17:21:40.474Z,101949.44
2023-09-06T17:24:10.346Z,101947.22
2023-09-06T17:26:38.083Z,101950.06
2023-09-06T17:29:11.215Z,101944.91
2023-09-06T17:31:37.939Z,101944.56
2023-09-06T17:34:04.682Z,101951.16
2023-09-06T17:36:31.312Z,101950.53
2023-09-06T17:38:57.932Z,101945.91
2023-09-06T17:41:24.850Z,101946.28
2023-09-06T17:43:52.138Z,101946.78
2023-09-06T17:46:25.179Z,101950.88
2023-09-06T17:48:54.057Z,101944.31
2023-09-06T17:51:21.039Z,101946.19
2023-09-06T17:53:48.793Z,101946.59
2023-09-06T17:56:17.469Z,101941.00
2023-09-06T17:58:45.547Z,101940.91
2023-09-06T18:01:15.156Z,101943.97
2023-09-06T18:03:44.727Z,101945.34
2023-09-06T18:06:14.581Z,101942.44
2023-09-06T18:08:43.479Z,101943.03
2023-09-06T18:11:10.360Z,101949.56
2023-09-06T18:13:40.432Z,101956.63
2023-09-06T18:16:12.091Z,101954.56
2023-09-06T18:18:39.155Z,101961.13
2023-09-06T18:21:10.188Z,101959.00
2023-09-06T18:23:38.588Z,101958.91
2023-09-06T18:26:06.230Z,101960.75
2023-09-06T18:28:33.230Z,101961.81
2023-09-06T18:31:01.581Z,101966.63
2023-09-06T18:33:28.370Z,101975.56
2023-09-06T18:35:58.915Z,101974.13
2023-09-06T18:38:27.903Z,101970.47
2023-09-06T18:40:57.272Z,101974.00
2023-09-06T18:43:24.465Z,101978.28
2023-09-06T18:45:51.589Z,101985.00
2023-09-06T18:48:20.392Z,101983.31
2023-09-06T18:50:48.116Z,101990.75
2023-09-06T18:53:15.020Z,101990.78
2023-09-06T18:55:44.841Z,101987.13
2023-09-06T18:58:12.636Z,101994.06
2023-09-06T19:00:42.906Z,101993.56
2023-09-06T19:03:14.217Z,101993.59
2023-09-06T19:05:42.465Z,101991.88
2023-09-06T19:08:15.269Z,101994.63
2023-09-06T19:10:43.281Z,101996.59
2023-09-06T19:13:11.437Z,101992.91
2023-09-06T19:15:38.056Z,102000.53
2023-09-06T19:18:07.023Z,101999.56
2023-09-06T19:20:34.042Z,102001.03
2023-09-06T19:23:00.680Z,102005.22
2023-09-06T19:25:28.531Z,102007.19
2023-09-06T19:27:55.399Z,102004.97
2023-09-06T19:30:22.237Z,102006.69
2023-09-06T19:32:49.005Z,102012.09
2023-09-06T19:35:15.708Z,102012.31
2023-09-06T19:37:42.288Z,102012.53
2023-09-06T19:40:09.458Z,102000.91
2023-09-06T19:42:36.172Z,102005.06
2023-09-06T19:45:03.245Z,102000.88
2023-09-06T19:47:29.882Z,102004.53
2023-09-06T19:49:57.112Z,102002.28
2023-09-06T19:52:24.104Z,102004.25
2023-09-06T19:54:50.656Z,102001.28
2023-09-06T19:57:17.261Z,102006.66
2023-09-06T19:59:43.934Z,101997.03
2023-09-06T20:02:10.635Z,101999.97
2023-09-06T20:04:37.521Z,102003.13
2023-09-06T20:07:05.482Z,102009.47
2023-09-06T20:09:32.446Z,102005.72
2023-09-06T20:11:59.133Z,102006.16
2023-09-06T20:14:28.742Z,102001.44
2023-09-06T20:16:56.946Z,102002.88
2023-09-06T20:19:24.750Z,102006.56
2023-09-06T20:21:51.338Z,101999.84
2023-09-06T20:24:18.330Z,102006.41
2023-09-06T20:26:45.159Z,102004.66
2023-09-06T20:29:11.855Z,102005.09
2023-09-06T20:31:38.609Z,102009.69
2023-09-06T20:34:05.325Z,102014.56
2023-09-06T20:36:34.216Z,102025.13
2023-09-06T20:39:01.036Z,102015.22
2023-09-06T20:41:27.647Z,102016.84
2023-09-06T20:43:54.273Z,102021.72
2023-09-06T20:46:20.931Z,102018.22
2023-09-06T20:48:47.646Z,102024.78
2023-09-06T20:51:17.305Z,102014.38
2023-09-06T20:53:44.547Z,102018.75
2023-09-06T20:56:11.854Z,102017.47
2023-09-06T20:58:38.872Z,102016.69
2023-09-06T21:01:16.520Z,102026.22
2023-09-06T21:03:43.366Z,102027.38
2023-09-06T21:06:11.792Z,102020.47
2023-09-06T21:08:38.681Z,102027.78
2023-09-06T21:11:05.404Z,102025.28
2023-09-06T21:13:33.391Z,102021.75
2023-09-06T21:16:02.514Z,102034.25
2023-09-06T21:18:30.906Z,102031.19
2023-09-06T21:20:58.247Z,102037.03
2023-09-06T21:23:24.887Z,102036.44
2023-09-06T21:25:51.527Z,102041.94
2023-09-06T21:28:18.385Z,102044.84
2023-09-06T21:30:48.455Z,102042.63
2023-09-06T21:33:16.221Z,102040.56
2023-09-06T21:35:44.977Z,102041.03
2023-09-06T21:38:12.387Z,102029.69
2023-09-06T21:40:44.176Z,102041.44
2023-09-06T21:43:18.566Z,102040.63
2023-09-06T21:45:45.950Z,102039.03
2023-09-06T21:48:12.887Z,102041.47
2023-09-06T21:50:41.842Z,102043.31
2023-09-06T21:53:09.547Z,102041.75
2023-09-06T21:55:36.349Z,102041.66
2023-09-06T21:58:10.506Z,102035.50
2023-09-06T22:00:40.084Z,102049.19
2023-09-06T22:03:25.565Z,102037.56
2023-09-06T22:06:10.459Z,102037.03
2023-09-06T22:08:55.646Z,102032.84
2023-09-06T22:11:41.440Z,102033.47
2023-09-06T22:14:11.184Z,102041.75
2023-09-06T22:16:38.058Z,102034.59
2023-09-06T22:19:04.940Z,102037.16
2023-09-06T22:21:31.562Z,102034.81
2023-09-06T22:23:58.648Z,102036.19
2023-09-06T22:26:25.217Z,102032.47
2023-09-06T22:28:54.170Z,102032.88
2023-09-06T22:31:22.913Z,102038.88
2023-09-06T22:33:49.737Z,102044.75
2023-09-06T22:36:16.569Z,102042.22
2023-09-06T22:38:43.111Z,102045.84
2023-09-06T22:41:09.642Z,102040.16
2023-09-06T22:43:36.145Z,102044.22
2023-09-06T22:46:03.492Z,102042.47
2023-09-06T22:48:40.585Z,102048.03
2023-09-06T22:51:14.863Z,102042.50
2023-09-06T22:53:41.858Z,102042.22
2023-09-06T22:56:08.644Z,102043.44
2023-09-06T22:58:35.283Z,102042.44
2023-09-06T23:01:08.667Z,102045.88
2023-09-06T23:03:35.783Z,102045.00
2023-09-06T23:06:03.124Z,102042.38
2023-09-06T23:08:30.054Z,102042.06
2023-09-06T23:10:58.360Z,102037.31
2023-09-06T23:13:25.232Z,102041.66
2023-09-06T23:15:52.946Z,102037.19
2023-09-06T23:18:21.844Z,102031.69
2023-09-06T23:20:49.422Z,102033.03
2023-09-06T23:23:18.271Z,102037.66
2023-09-06T23:25:47.286Z,102043.53
2023-09-06T23:28:21.716Z,102040.56
2023-09-06T23:30:54.842Z,102034.59
2023-09-06T23:33:40.082Z,102032.81
2023-09-06T23:36:10.465Z,102032.22
2023-09-06T23:38:37.698Z,102031.19
2023-09-06T23:41:09.431Z,102029.41
2023-09-06T23:43:36.090Z,102026.88
2023-09-06T23:46:03.641Z,102020.16
2023-09-06T23:48:30.439Z,102020.63
2023-09-06T23:51:00.205Z,102024.22
2023-09-06T23:53:27.117Z,102029.31
2023-09-06T23:55:56.882Z,102027.97
2023-09-06T23:58:24.095Z,102024.72
